createdAt,value
2022-12-26T00:01:38.611Z,8.75
2022-12-26T00:06:41.811Z,8.77
2022-12-26T00:11:45.127Z,8.80
2022-12-26T00:16:50.340Z,8.81
2022-12-26T00:21:55.957Z,8.86
2022-12-26T00:26:58.975Z,8.86
2022-12-26T00:32:03.442Z,8.81
2022-12-26T00:37:06.538Z,8.85
2022-12-26T00:42:09.939Z,8.85
2022-12-26T00:47:14.392Z,8.84
2022-12-26T00:52:17.436Z,8.86
2022-12-26T00:57:20.461Z,8.87
2022-12-26T01:02:41.035Z,8.85
2022-12-26T01:08:21.492Z,8.84
2022-12-26T01:13:08.700Z,8.88
2022-12-26T01:18:13.218Z,8.91
2022-12-26T01:23:16.799Z,8.88
2022-12-26T01:28:19.975Z,8.86
2022-12-26T01:33:24.491Z,8.88
2022-12-26T01:38:27.609Z,8.84
2022-12-26T01:43:52.656Z,8.74
2022-12-26T01:48:59.629Z,8.68
2022-12-26T01:54:41.253Z,8.72
2022-12-26T01:59:31.634Z,8.77
2022-12-26T02:05:10.488Z,8.83
2022-12-26T02:10:18.776Z,8.81
2022-12-26T02:15:21.861Z,8.75
2022-12-26T02:20:34.527Z,8.68
2022-12-26T02:26:02.924Z,8.57
2022-12-26T02:31:10.873Z,8.43
2022-12-26T02:36:38.503Z,8.31
2022-12-26T02:41:53.236Z,8.40
2022-12-26T02:47:06.665Z,8.50
2022-12-26T02:52:37.381Z,8.53
2022-12-26T02:58:04.993Z,8.54
2022-12-26T03:03:33.249Z,8.56
2022-12-26T03:08:58.495Z,8.55
2022-12-26T03:14:11.643Z,8.60
2022-12-26T03:19:16.618Z,8.49
2022-12-26T03:24:19.976Z,8.34
2022-12-26T03:29:44.456Z,8.23
2022-12-26T03:34:49.354Z,8.14
2022-12-26T03:40:20.711Z,8.05
2022-12-26T03:45:48.865Z,7.97
2022-12-26T03:51:18.779Z,7.93
2022-12-26T03:56:49.008Z,7.90
2022-12-26T04:02:11.577Z,7.86
2022-12-26T04:07:56.198Z,7.83
2022-12-26T04:13:27.844Z,7.81
2022-12-26T04:19:01.038Z,7.82
2022-12-26T04:24:29.731Z,7.79
2022-12-26T04:29:51.937Z,7.79
2022-12-26T04:35:24.542Z,7.74
2022-12-26T04:40:50.542Z,7.69
2022-12-26T04:45:54.386Z,7.67
2022-12-26T04:50:57.814Z,7.75
2022-12-26T04:56:02.290Z,7.74
2022-12-26T05:01:19.627Z,7.74
2022-12-26T05:06:40.361Z,7.72
2022-12-26T05:11:47.286Z,7.71
2022-12-26T05:17:07.980Z,7.79
2022-12-26T05:22:30.753Z,7.85
2022-12-26T05:27:55.895Z,7.73
2022-12-26T05:33:16.376Z,7.67
2022-12-26T05:38:19.531Z,7.60
2022-12-26T05:43:24.201Z,7.56
2022-12-26T05:48:27.185Z,7.54
2022-12-26T05:53:31.140Z,7.51
2022-12-26T05:58:35.815Z,7.58
2022-12-26T06:03:39.964Z,7.72
2022-12-26T06:08:43.846Z,7.74
2022-12-26T06:13:48.164Z,7.74
2022-12-26T06:18:51.216Z,7.64
2022-12-26T06:23:54.259Z,7.55
2022-12-26T06:28:58.634Z,7.50
2022-12-26T06:34:02.614Z,7.43
2022-12-26T06:39:05.712Z,7.44
2022-12-26T06:44:17.723Z,7.40
2022-12-26T06:49:21.329Z,7.40
2022-12-26T06:54:24.389Z,7.43
2022-12-26T06:59:29.099Z,7.44
2022-12-26T07:04:32.388Z,7.50
2022-12-26T07:09:35.453Z,7.45
2022-12-26T07:14:39.935Z,7.47
2022-12-26T07:19:43.023Z,7.51
2022-12-26T07:24:46.061Z,7.52
2022-12-26T07:29:50.617Z,7.59
2022-12-26T07:34:54.952Z,7.72
2022-12-26T07:40:00.616Z,7.84
2022-12-26T07:45:05.432Z,7.91
2022-12-26T07:50:09.498Z,8.03
2022-12-26T07:55:12.607Z,8.05
2022-12-26T08:00:19.069Z,8.12
2022-12-26T08:05:22.198Z,8.16
2022-12-26T08:10:25.208Z,8.12
2022-12-26T08:15:29.577Z,8.17
2022-12-26T08:20:33.101Z,8.23
2022-12-26T08:25:36.098Z,8.31
2022-12-26T08:30:42.320Z,8.41
2022-12-26T08:35:45.513Z,8.52
2022-12-26T08:40:56.179Z,8.61
2022-12-26T08:46:02.040Z,8.67
2022-12-26T08:51:08.652Z,8.81
2022-12-26T08:56:14.813Z,8.97
2022-12-26T09:01:21.137Z,9.02
2022-12-26T09:06:27.559Z,9.04
2022-12-26T09:11:31.183Z,8.99
2022-12-26T09:16:49.377Z,8.90
2022-12-26T09:22:14.170Z,8.84
2022-12-26T09:27:17.240Z,8.72
2022-12-26T09:32:21.820Z,8.67
2022-12-26T09:37:24.861Z,8.60
2022-12-26T09:42:39.686Z,8.58
2022-12-26T09:47:53.541Z,8.61
2022-12-26T09:52:59.758Z,8.63
2022-12-26T09:58:09.700Z,8.64
2022-12-26T10:03:14.181Z,8.55
2022-12-26T10:08:28.242Z,8.27
2022-12-26T10:13:40.035Z,7.86
2022-12-26T10:18:59.634Z,7.70
2022-12-26T10:24:06.017Z,7.77
2022-12-26T10:29:19.475Z,7.86
2022-12-26T10:34:29.408Z,8.01
2022-12-26T10:39:41.150Z,7.99
2022-12-26T10:44:44.890Z,8.11
2022-12-26T10:49:49.849Z,8.01
2022-12-26T10:55:29.003Z,7.77
2022-12-26T11:00:22.729Z,7.74
2022-12-26T11:05:48.833Z,7.63
2022-12-26T11:11:08.647Z,7.60
2022-12-26T11:16:11.985Z,7.65
2022-12-26T11:21:24.002Z,7.57
2022-12-26T11:26:30.008Z,7.61
2022-12-26T11:31:33.333Z,7.59
2022-12-26T11:36:41.641Z,7.54
2022-12-26T11:41:49.096Z,7.45
2022-12-26T11:46:55.769Z,7.46
2022-12-26T11:52:04.603Z,7.39
2022-12-26T11:57:19.369Z,7.15
2022-12-26T12:02:31.189Z,6.96
2022-12-26T12:08:00.450Z,6.86
2022-12-26T12:13:11.544Z,6.84
2022-12-26T12:18:21.460Z,6.89
2022-12-26T12:24:01.930Z,6.87
2022-12-26T12:29:22.514Z,7.03
2022-12-26T12:34:43.087Z,7.18
2022-12-26T12:39:56.259Z,7.35
2022-12-26T12:45:20.613Z,7.23
2022-12-26T12:50:33.649Z,7.03
2022-12-26T12:55:48.160Z,6.90
2022-12-26T13:00:56.406Z,6.73
2022-12-26T13:06:06.411Z,6.55
2022-12-26T13:11:21.449Z,6.58
2022-12-26T13:16:28.665Z,6.53
2022-12-26T13:21:37.006Z,6.45
2022-12-26T13:26:44.932Z,6.45
2022-12-26T13:31:48.249Z,6.38
2022-12-26T13:36:54.786Z,6.47
2022-12-26T13:42:20.138Z,6.59
2022-12-26T13:47:35.699Z,6.57
2022-12-26T13:52:41.409Z,6.62
2022-12-26T13:57:47.473Z,6.64
2022-12-26T14:03:27.244Z,6.66
2022-12-26T14:08:38.849Z,6.36
2022-12-26T14:14:06.701Z,6.21
2022-12-26T14:19:28.937Z,5.97
2022-12-26T14:24:42.967Z,5.83
2022-12-26T14:29:58.305Z,5.74
2022-12-26T14:35:11.767Z,5.63
2022-12-26T14:40:26.940Z,5.66
2022-12-26T14:45:47.019Z,5.84
2022-12-26T14:50:52.060Z,5.80
2022-12-26T14:55:57.681Z,5.73
2022-12-26T15:01:34.215Z,5.68
2022-12-26T15:07:03.819Z,5.47
2022-12-26T15:12:43.434Z,5.34
2022-12-26T15:17:57.596Z,5.20
2022-12-26T15:23:30.540Z,5.16
2022-12-26T15:28:52.709Z,5.20
2022-12-26T15:34:03.815Z,5.07
2022-12-26T15:39:20.832Z,4.93
2022-12-26T15:44:33.416Z,4.80
2022-12-26T15:49:59.217Z,4.66
2022-12-26T15:55:18.896Z,4.57
2022-12-26T16:00:24.040Z,4.48
2022-12-26T16:05:35.825Z,4.43
2022-12-26T16:10:41.312Z,4.33
2022-12-26T16:15:47.154Z,4.24
2022-12-26T16:21:10.762Z,4.17
2022-12-26T16:26:23.878Z,4.04
2022-12-26T16:31:31.108Z,3.99
2022-12-26T16:36:36.607Z,3.92
2022-12-26T16:41:58.980Z,3.84
2022-12-26T16:47:04.675Z,3.79
2022-12-26T16:52:08.323Z,3.77
2022-12-26T16:57:15.961Z,3.70
2022-12-26T17:02:25.148Z,3.65
2022-12-26T17:07:29.175Z,3.60
2022-12-26T17:12:36.573Z,3.58
2022-12-26T17:17:40.718Z,3.51
2022-12-26T17:22:43.780Z,3.47
2022-12-26T17:27:49.701Z,3.36
2022-12-26T17:32:52.857Z,3.35
2022-12-26T17:38:02.376Z,3.28
2022-12-26T17:43:23.538Z,3.16
2022-12-26T17:48:26.733Z,3.18
2022-12-26T17:53:32.415Z,3.15
2022-12-26T17:58:36.915Z,3.05
2022-12-26T18:03:40.163Z,3.03
2022-12-26T18:08:43.285Z,2.99
2022-12-26T18:13:47.707Z,2.99
2022-12-26T18:18:50.713Z,3.00
2022-12-26T18:23:53.842Z,2.98
2022-12-26T18:28:58.825Z,2.92
2022-12-26T18:34:04.297Z,2.89
2022-12-26T18:39:07.515Z,2.91
2022-12-26T18:44:12.123Z,2.92
2022-12-26T18:49:17.174Z,3.16
2022-12-26T18:54:20.186Z,3.37
2022-12-26T18:59:26.666Z,3.37
2022-12-26T19:04:29.710Z,3.26
2022-12-26T19:09:33.142Z,3.28
2022-12-26T19:14:37.735Z,3.29
2022-12-26T19:19:41.104Z,3.39
2022-12-26T19:24:44.279Z,3.37
2022-12-26T19:29:49.033Z,3.28
2022-12-26T19:34:53.738Z,3.31
2022-12-26T19:39:58.143Z,3.43
2022-12-26T19:45:02.811Z,3.39
2022-12-26T19:50:08.108Z,3.49
2022-12-26T19:55:13.116Z,3.35
2022-12-26T20:00:17.936Z,3.23
2022-12-26T20:05:20.978Z,3.19
2022-12-26T20:10:23.999Z,3.16
2022-12-26T20:15:28.521Z,3.12
2022-12-26T20:20:31.501Z,3.11
2022-12-26T20:25:34.581Z,3.09
2022-12-26T20:30:39.874Z,3.01
2022-12-26T20:35:42.988Z,2.97
2022-12-26T20:40:50.074Z,2.89
2022-12-26T20:45:55.592Z,2.91
2022-12-26T20:50:59.573Z,2.89
2022-12-26T20:56:02.927Z,2.90
2022-12-26T21:01:09.700Z,2.90
2022-12-26T21:06:14.606Z,2.89
2022-12-26T21:11:20.454Z,2.88
2022-12-26T21:16:27.346Z,2.87
2022-12-26T21:21:33.085Z,2.85
2022-12-26T21:26:37.774Z,2.84
2022-12-26T21:31:43.261Z,2.81
2022-12-26T21:37:07.407Z,2.84
2022-12-26T21:42:16.318Z,2.79
2022-12-26T21:47:21.621Z,2.77
2022-12-26T21:52:27.002Z,2.79
2022-12-26T21:57:30.672Z,2.74
2022-12-26T22:02:55.590Z,2.79
2022-12-26T22:08:00.841Z,2.78
2022-12-26T22:13:04.074Z,2.80
2022-12-26T22:18:08.883Z,2.79
2022-12-26T22:23:11.958Z,2.76
2022-12-26T22:28:18.830Z,2.74
2022-12-26T22:33:31.286Z,2.74
2022-12-26T22:38:34.614Z,2.67
2022-12-26T22:43:38.434Z,2.68
2022-12-26T22:48:42.966Z,2.71
2022-12-26T22:53:46.059Z,2.70
2022-12-26T22:58:49.777Z,2.70
2022-12-26T23:03:54.423Z,2.67
2022-12-26T23:08:59.877Z,2.64
2022-12-26T23:14:04.913Z,2.61
2022-12-26T23:19:32.708Z,2.59
2022-12-26T23:24:35.805Z,2.57
2022-12-26T23:29:56.588Z,2.55
2022-12-26T23:35:01.293Z,2.57
2022-12-26T23:40:05.024Z,2.55
2022-12-26T23:45:09.181Z,2.55
2022-12-26T23:50:15.499Z,2.54
2022-12-26T23:55:19.206Z,2.53
